<?xml version="1.0" encoding="UTF-8" standalone="no" ?>
<gpx xmlns="http://www.topografix.com/GPX/1/1" xmlns:xsi="http://www.w3.org/2001/XMLSchema-instance" xsi:schemaLocation="http://www.topografix.com/GPX/1/1 http://www.topografix.com/GPX/1/1/gpx.xsd" version="1.1" creator="VisuGPX - https://www.visugpx.com">
  <metadata>
    <name>Rouans_GrdCheminMaraisAcheneauMessanCheix_11-23km</name>
    <desc><![CDATA[gnerando idor:6533359_8371104_8372014]]></desc>
  </metadata>
  <trk>
    <name><![CDATA[Rouans_BoucleMaraisAcheneau_13.5km-8372014]]></name>
    <extensions>
      <line xmlns="http://www.topografix.com/GPX/gpx_style/0/2">
        <color>00FF00</color>
        <width>4</width>
      </line>
    </extensions>
    <trkseg>
      <trkpt lat="47.18368" lon="-1.85898">
        <ele>16</ele>
        <time>2023-11-12T06:24:10Z</time>
      </trkpt>
      <trkpt lat="47.18289" lon="-1.85764">
        <ele>16</ele>
        <time>2023-11-12T06:26:51Z</time>
      </trkpt>
      <trkpt lat="47.18154" lon="-1.85339">
        <ele>10</ele>
        <time>2023-11-12T06:33:56Z</time>
      </trkpt>
      <trkpt lat="47.18156" lon="-1.85282">
        <ele>8</ele>
        <time>2023-11-12T06:34:48Z</time>
      </trkpt>
      <trkpt lat="47.18124" lon="-1.85216">
        <ele>7</ele>
        <time>2023-11-12T06:36:02Z</time>
      </trkpt>
      <trkpt lat="47.18079" lon="-1.85148">
        <ele>5</ele>
        <time>2023-11-12T06:37:28Z</time>
      </trkpt>
      <trkpt lat="47.1798" lon="-1.84891">
        <ele>2</ele>
        <time>2023-11-12T06:41:56Z</time>
      </trkpt>
      <trkpt lat="47.17772" lon="-1.84294">
        <ele>2</ele>
        <time>2023-11-12T06:52:04Z</time>
      </trkpt>
      <trkpt lat="47.17735" lon="-1.84303">
        <ele>2</ele>
        <time>2023-11-12T06:52:54Z</time>
      </trkpt>
      <trkpt lat="47.17702" lon="-1.84279">
        <ele>3</ele>
        <time>2023-11-12T06:53:43Z</time>
      </trkpt>
      <trkpt lat="47.17607" lon="-1.84319">
        <ele>2</ele>
        <time>2023-11-12T06:55:55Z</time>
      </trkpt>
      <trkpt lat="47.17605" lon="-1.84319">
        <ele>2</ele>
        <time>2023-11-12T06:55:58Z</time>
      </trkpt>
      <trkpt lat="47.17539" lon="-1.84308">
        <ele>6</ele>
        <time>2023-11-12T06:57:27Z</time>
      </trkpt>
      <trkpt lat="47.17515" lon="-1.84345">
        <ele>7</ele>
        <time>2023-11-12T06:58:13Z</time>
      </trkpt>
      <trkpt lat="47.17499" lon="-1.84494">
        <ele>1</ele>
        <time>2023-11-12T07:00:30Z</time>
      </trkpt>
      <trkpt lat="47.17397" lon="-1.84604">
        <ele>2</ele>
        <time>2023-11-12T07:03:19Z</time>
      </trkpt>
      <trkpt lat="47.17135" lon="-1.84586">
        <ele>24</ele>
        <time>2023-11-12T07:09:09Z</time>
      </trkpt>
      <trkpt lat="47.17142" lon="-1.84362">
        <ele>20</ele>
        <time>2023-11-12T07:12:32Z</time>
      </trkpt>
      <trkpt lat="47.1714" lon="-1.84207">
        <ele>23</ele>
        <time>2023-11-12T07:14:53Z</time>
      </trkpt>
      <trkpt lat="47.17077" lon="-1.84145">
        <ele>26</ele>
        <time>2023-11-12T07:16:34Z</time>
      </trkpt>
      <trkpt lat="47.1702" lon="-1.8404">
        <ele>28</ele>
        <time>2023-11-12T07:18:36Z</time>
      </trkpt>
      <trkpt lat="47.16973" lon="-1.83788">
        <ele>31</ele>
        <time>2023-11-12T07:22:33Z</time>
      </trkpt>
      <trkpt lat="47.16833" lon="-1.83538">
        <ele>31</ele>
        <time>2023-11-12T07:27:27Z</time>
      </trkpt>
      <trkpt lat="47.16766" lon="-1.8334">
        <ele>25</ele>
        <time>2023-11-12T07:30:47Z</time>
      </trkpt>
      <trkpt lat="47.16734" lon="-1.8329">
        <ele>24</ele>
        <time>2023-11-12T07:31:50Z</time>
      </trkpt>
      <trkpt lat="47.16639" lon="-1.83204">
        <ele>18</ele>
        <time>2023-11-12T07:34:18Z</time>
      </trkpt>
      <trkpt lat="47.16635" lon="-1.83156">
        <ele>16</ele>
        <time>2023-11-12T07:35:02Z</time>
      </trkpt>
      <trkpt lat="47.16635" lon="-1.83154">
        <ele>16</ele>
        <time>2023-11-12T07:35:04Z</time>
      </trkpt>
      <trkpt lat="47.16694" lon="-1.83066">
        <ele>14</ele>
        <time>2023-11-12T07:36:56Z</time>
      </trkpt>
      <trkpt lat="47.16574" lon="-1.82766">
        <ele>5</ele>
        <time>2023-11-12T07:42:12Z</time>
      </trkpt>
      <trkpt lat="47.16801" lon="-1.82656">
        <ele>4</ele>
        <time>2023-11-12T07:47:31Z</time>
      </trkpt>
      <trkpt lat="47.16966" lon="-1.82518">
        <ele>4</ele>
        <time>2023-11-12T07:51:44Z</time>
      </trkpt>
      <trkpt lat="47.17029" lon="-1.82404">
        <ele>4</ele>
        <time>2023-11-12T07:53:58Z</time>
      </trkpt>
      <trkpt lat="47.1702" lon="-1.82312">
        <ele>6</ele>
        <time>2023-11-12T07:55:22Z</time>
      </trkpt>
      <trkpt lat="47.17036" lon="-1.82176">
        <ele>9</ele>
        <time>2023-11-12T07:57:27Z</time>
      </trkpt>
      <trkpt lat="47.17038" lon="-1.82176">
        <ele>9</ele>
        <time>2023-11-12T07:57:30Z</time>
      </trkpt>
      <trkpt lat="47.17128" lon="-1.82075">
        <ele>4</ele>
        <time>2023-11-12T08:00:01Z</time>
      </trkpt>
      <trkpt lat="47.1718" lon="-1.81871">
        <ele>3</ele>
        <time>2023-11-12T08:03:18Z</time>
      </trkpt>
      <trkpt lat="47.17235" lon="-1.81696">
        <ele>1</ele>
        <time>2023-11-12T08:06:13Z</time>
      </trkpt>
      <trkpt lat="47.17145" lon="-1.81619">
        <ele>3</ele>
        <time>2023-11-12T08:08:32Z</time>
      </trkpt>
      <trkpt lat="47.17351" lon="-1.8135">
        <ele>1.5</ele>
        <time>2023-11-12T08:14:40Z</time>
      </trkpt>
      <trkpt lat="47.17351" lon="-1.81352">
        <ele>1.5</ele>
        <time>2023-11-12T08:14:42Z</time>
      </trkpt>
      <trkpt lat="47.1759" lon="-1.8138">
        <ele>3</ele>
        <time>2023-11-12T08:20:02Z</time>
      </trkpt>
      <trkpt lat="47.1759" lon="-1.81437">
        <ele>3</ele>
        <time>2023-11-12T08:20:53Z</time>
      </trkpt>
      <trkpt lat="47.17671" lon="-1.81521">
        <ele>5</ele>
        <time>2023-11-12T08:23:06Z</time>
      </trkpt>
      <trkpt lat="47.17737" lon="-1.81571">
        <ele>5</ele>
        <time>2023-11-12T08:24:45Z</time>
      </trkpt>
      <trkpt lat="47.17834" lon="-1.8156">
        <ele>3</ele>
        <time>2023-11-12T08:26:54Z</time>
      </trkpt>
      <trkpt lat="47.17928" lon="-1.81527">
        <ele>5</ele>
        <time>2023-11-12T08:29:03Z</time>
      </trkpt>
      <trkpt lat="47.1803" lon="-1.81567">
        <ele>6</ele>
        <time>2023-11-12T08:31:24Z</time>
      </trkpt>
      <trkpt lat="47.18044" lon="-1.8165">
        <ele>4</ele>
        <time>2023-11-12T08:32:42Z</time>
      </trkpt>
      <trkpt lat="47.18043" lon="-1.81769">
        <ele>2</ele>
        <time>2023-11-12T08:34:30Z</time>
      </trkpt>
      <trkpt lat="47.18069" lon="-1.81854">
        <ele>2</ele>
        <time>2023-11-12T08:35:54Z</time>
      </trkpt>
      <trkpt lat="47.18069" lon="-1.81856">
        <ele>2</ele>
        <time>2023-11-12T08:35:56Z</time>
      </trkpt>
      <trkpt lat="47.18075" lon="-1.82218">
        <ele>1</ele>
        <time>2023-11-12T08:41:25Z</time>
      </trkpt>
      <trkpt lat="47.18159" lon="-1.8226">
        <ele>2</ele>
        <time>2023-11-12T08:43:23Z</time>
      </trkpt>
      <trkpt lat="47.18159" lon="-1.82258">
        <ele>3</ele>
        <time>2023-11-12T08:43:25Z</time>
      </trkpt>
      <trkpt lat="47.1821" lon="-1.8222">
        <ele>3</ele>
        <time>2023-11-12T08:44:41Z</time>
      </trkpt>
      <trkpt lat="47.18233" lon="-1.82181">
        <ele>4</ele>
        <time>2023-11-12T08:45:28Z</time>
      </trkpt>
      <trkpt lat="47.18332" lon="-1.82238">
        <ele>3</ele>
        <time>2023-11-12T08:47:50Z</time>
      </trkpt>
      <trkpt lat="47.18334" lon="-1.82321">
        <ele>4</ele>
        <time>2023-11-12T08:49:05Z</time>
      </trkpt>
      <trkpt lat="47.18271" lon="-1.82367">
        <ele>3</ele>
        <time>2023-11-12T08:50:39Z</time>
      </trkpt>
      <trkpt lat="47.18267" lon="-1.82416">
        <ele>4</ele>
        <time>2023-11-12T08:51:24Z</time>
      </trkpt>
      <trkpt lat="47.18308" lon="-1.82466">
        <ele>4</ele>
        <time>2023-11-12T08:52:35Z</time>
      </trkpt>
      <trkpt lat="47.18281" lon="-1.82508">
        <ele>3</ele>
        <time>2023-11-12T08:53:27Z</time>
      </trkpt>
      <trkpt lat="47.18265" lon="-1.82598">
        <ele>3</ele>
        <time>2023-11-12T08:54:52Z</time>
      </trkpt>
      <trkpt lat="47.18271" lon="-1.82681">
        <ele>3</ele>
        <time>2023-11-12T08:56:07Z</time>
      </trkpt>
      <trkpt lat="47.18332" lon="-1.82817">
        <ele>4</ele>
        <time>2023-11-12T08:58:35Z</time>
      </trkpt>
      <trkpt lat="47.18334" lon="-1.82881">
        <ele>5</ele>
        <time>2023-11-12T08:59:33Z</time>
      </trkpt>
      <trkpt lat="47.18267" lon="-1.82986">
        <ele>3</ele>
        <time>2023-11-12T09:01:44Z</time>
      </trkpt>
      <trkpt lat="47.18157" lon="-1.83001">
        <ele>4</ele>
        <time>2023-11-12T09:04:11Z</time>
      </trkpt>
      <trkpt lat="47.18139" lon="-1.83027">
        <ele>3</ele>
        <time>2023-11-12T09:04:45Z</time>
      </trkpt>
      <trkpt lat="47.18125" lon="-1.83085">
        <ele>2</ele>
        <time>2023-11-12T09:05:41Z</time>
      </trkpt>
      <trkpt lat="47.18125" lon="-1.83087">
        <ele>2</ele>
        <time>2023-11-12T09:05:43Z</time>
      </trkpt>
      <trkpt lat="47.18175" lon="-1.83251">
        <ele>2</ele>
        <time>2023-11-12T09:08:26Z</time>
      </trkpt>
      <trkpt lat="47.18245" lon="-1.8337">
        <ele>4</ele>
        <time>2023-11-12T09:10:48Z</time>
      </trkpt>
      <trkpt lat="47.18335" lon="-1.83416">
        <ele>5</ele>
        <time>2023-11-12T09:12:55Z</time>
      </trkpt>
      <trkpt lat="47.18449" lon="-1.83394">
        <ele>5</ele>
        <time>2023-11-12T09:15:29Z</time>
      </trkpt>
      <trkpt lat="47.18407" lon="-1.83488">
        <ele>4</ele>
        <time>2023-11-12T09:17:11Z</time>
      </trkpt>
      <trkpt lat="47.18321" lon="-1.8358">
        <ele>2</ele>
        <time>2023-11-12T09:19:33Z</time>
      </trkpt>
      <trkpt lat="47.18321" lon="-1.8365">
        <ele>2</ele>
        <time>2023-11-12T09:20:36Z</time>
      </trkpt>
      <trkpt lat="47.18396" lon="-1.8381">
        <ele>3</ele>
        <time>2023-11-12T09:23:33Z</time>
      </trkpt>
      <trkpt lat="47.18477" lon="-1.83903">
        <ele>4</ele>
        <time>2023-11-12T09:25:50Z</time>
      </trkpt>
      <trkpt lat="47.18599" lon="-1.83802">
        <ele>6</ele>
        <time>2023-11-12T09:28:56Z</time>
      </trkpt>
      <trkpt lat="47.18616" lon="-1.83742">
        <ele>6</ele>
        <time>2023-11-12T09:29:55Z</time>
      </trkpt>
      <trkpt lat="47.18628" lon="-1.83644">
        <ele>9</ele>
        <time>2023-11-12T09:31:26Z</time>
      </trkpt>
      <trkpt lat="47.18856" lon="-1.8356">
        <ele>11</ele>
        <time>2023-11-12T09:36:39Z</time>
      </trkpt>
      <trkpt lat="47.18858" lon="-1.8356">
        <ele>11</ele>
        <time>2023-11-12T09:36:42Z</time>
      </trkpt>
      <trkpt lat="47.1912" lon="-1.83484">
        <ele>15</ele>
        <time>2023-11-12T09:42:38Z</time>
      </trkpt>
      <trkpt lat="47.19131" lon="-1.83736">
        <ele>11</ele>
        <time>2023-11-12T09:46:27Z</time>
      </trkpt>
      <trkpt lat="47.19183" lon="-1.83918">
        <ele>12</ele>
        <time>2023-11-12T09:49:26Z</time>
      </trkpt>
      <trkpt lat="47.19205" lon="-1.84038">
        <ele>10</ele>
        <time>2023-11-12T09:51:19Z</time>
      </trkpt>
      <trkpt lat="47.19193" lon="-1.84106">
        <ele>8</ele>
        <time>2023-11-12T09:52:23Z</time>
      </trkpt>
      <trkpt lat="47.19191" lon="-1.84106">
        <ele>8</ele>
        <time>2023-11-12T09:52:26Z</time>
      </trkpt>
      <trkpt lat="47.19105" lon="-1.84145">
        <ele>3</ele>
        <time>2023-11-12T09:54:26Z</time>
      </trkpt>
      <trkpt lat="47.18774" lon="-1.84356">
        <ele>-1</ele>
        <time>2023-11-12T10:02:27Z</time>
      </trkpt>
      <trkpt lat="47.18963" lon="-1.84924">
        <ele>1.3</ele>
        <time>2023-11-12T10:12:01Z</time>
      </trkpt>
      <trkpt lat="47.18963" lon="-1.84926">
        <ele>1.3</ele>
        <time>2023-11-12T10:12:02Z</time>
      </trkpt>
      <trkpt lat="47.19011" lon="-1.84946">
        <ele>1</ele>
        <time>2023-11-12T10:13:09Z</time>
      </trkpt>
      <trkpt lat="47.19078" lon="-1.84918">
        <ele>3</ele>
        <time>2023-11-12T10:14:42Z</time>
      </trkpt>
      <trkpt lat="47.1914" lon="-1.84944">
        <ele>3</ele>
        <time>2023-11-12T10:16:08Z</time>
      </trkpt>
      <trkpt lat="47.19164" lon="-1.85097">
        <ele>1</ele>
        <time>2023-11-12T10:18:30Z</time>
      </trkpt>
      <trkpt lat="47.19164" lon="-1.851">
        <ele>1</ele>
        <time>2023-11-12T10:18:33Z</time>
      </trkpt>
      <trkpt lat="47.19194" lon="-1.85214">
        <ele>3</ele>
        <time>2023-11-12T10:20:24Z</time>
      </trkpt>
      <trkpt lat="47.19254" lon="-1.85317">
        <ele>4</ele>
        <time>2023-11-12T10:22:27Z</time>
      </trkpt>
      <trkpt lat="47.19216" lon="-1.85383">
        <ele>4</ele>
        <time>2023-11-12T10:23:45Z</time>
      </trkpt>
      <trkpt lat="47.19259" lon="-1.85479">
        <ele>3</ele>
        <time>2023-11-12T10:25:30Z</time>
      </trkpt>
      <trkpt lat="47.19254" lon="-1.85569">
        <ele>3</ele>
        <time>2023-11-12T10:26:52Z</time>
      </trkpt>
      <trkpt lat="47.19178" lon="-1.85729">
        <ele>4</ele>
        <time>2023-11-12T10:29:49Z</time>
      </trkpt>
      <trkpt lat="47.19069" lon="-1.85709">
        <ele>2</ele>
        <time>2023-11-12T10:32:15Z</time>
      </trkpt>
      <trkpt lat="47.19015" lon="-1.85619">
        <ele>2</ele>
        <time>2023-11-12T10:34:04Z</time>
      </trkpt>
      <trkpt lat="47.18632" lon="-1.85911">
        <ele>7</ele>
        <time>2023-11-12T10:43:40Z</time>
      </trkpt>
      <trkpt lat="47.18587" lon="-1.8594">
        <ele>11</ele>
        <time>2023-11-12T10:44:45Z</time>
      </trkpt>
      <trkpt lat="47.18537" lon="-1.86058">
        <ele>15</ele>
        <time>2023-11-12T10:46:51Z</time>
      </trkpt>
      <trkpt lat="47.18504" lon="-1.86122">
        <ele>15</ele>
        <time>2023-11-12T10:48:04Z</time>
      </trkpt>
      <trkpt lat="47.18422" lon="-1.86152">
        <ele>18</ele>
        <time>2023-11-12T10:49:57Z</time>
      </trkpt>
      <trkpt lat="47.1837" lon="-1.859">
        <ele>16</ele>
        <time>2023-11-12T10:53:56Z</time>
      </trkpt>
    </trkseg>
  </trk>
</gpx>